createdAt,value
2022-10-10T00:00:58.128Z,101516.31
2022-10-10T00:03:27.204Z,101517.34
2022-10-10T00:05:53.901Z,101524.78
2022-10-10T00:08:20.509Z,101514.41
2022-10-10T00:10:47.119Z,101514.28
2022-10-10T00:13:13.703Z,101514.53
2022-10-10T00:15:40.462Z,101517.50
2022-10-10T00:18:07.386Z,101521.06
2022-10-10T00:20:34.028Z,101518.59
2022-10-10T00:23:05.378Z,101519.63
2022-10-10T00:25:31.955Z,101504.50
2022-10-10T00:28:02.654Z,101479.78
2022-10-10T00:30:31.961Z,101503.31
2022-10-10T00:32:59.651Z,101482.38
2022-10-10T00:35:27.580Z,101508.63
2022-10-10T00:37:54.397Z,101497.38
2022-10-10T00:40:21.458Z,101505.25
2022-10-10T00:42:51.005Z,101503.69
2022-10-10T00:45:29.268Z,101502.81
2022-10-10T00:48:06.704Z,101491.53
2022-10-10T00:50:38.687Z,101489.81
2022-10-10T00:53:06.880Z,101490.44
2022-10-10T00:55:34.994Z,101496.00
2022-10-10T00:58:01.890Z,101496.97
2022-10-10T01:00:28.761Z,101492.69
2022-10-10T01:02:55.385Z,101486.63
2022-10-10T01:05:22.164Z,101485.00
2022-10-10T01:07:49.005Z,101481.19
2022-10-10T01:10:17.793Z,101486.63
2022-10-10T01:13:04.411Z,101478.69
2022-10-10T01:15:43.232Z,101470.19
2022-10-10T01:18:26.364Z,101469.91
2022-10-10T01:21:18.255Z,101467.34
2022-10-10T01:24:01.278Z,101470.19
2022-10-10T01:26:42.928Z,101470.19
2022-10-10T01:29:26.481Z,101473.03
2022-10-10T01:32:00.353Z,101470.44
2022-10-10T01:34:37.585Z,101465.34
2022-10-10T01:37:12.982Z,101474.13
2022-10-10T01:39:56.780Z,101454.84
2022-10-10T01:42:32.106Z,101462.63
2022-10-10T01:44:58.693Z,101463.50
2022-10-10T01:47:25.701Z,101426.41
2022-10-10T01:49:57.837Z,101451.75
2022-10-10T01:52:42.427Z,101450.84
2022-10-10T01:55:09.321Z,101457.31
2022-10-10T01:58:13.518Z,101446.53
2022-10-10T02:00:50.005Z,101446.66
2022-10-10T02:03:21.131Z,101418.75
2022-10-10T02:06:02.420Z,101440.50
2022-10-10T02:08:34.403Z,101443.22
2022-10-10T02:11:08.283Z,101437.00
2022-10-10T02:13:37.111Z,101428.84
2022-10-10T02:16:12.037Z,101436.03
2022-10-10T02:18:39.264Z,101415.13
2022-10-10T02:21:09.076Z,101430.84
2022-10-10T02:23:36.007Z,101428.25
2022-10-10T02:26:03.622Z,101401.03
2022-10-10T02:28:50.781Z,101423.94
2022-10-10T02:31:26.766Z,101418.75
2022-10-10T02:34:01.729Z,101421.34
2022-10-10T02:36:32.107Z,101393.25
2022-10-10T02:39:01.939Z,101416.28
2022-10-10T02:41:29.508Z,101403.16
2022-10-10T02:43:56.831Z,101408.34
2022-10-10T02:46:25.917Z,101394.25
2022-10-10T02:48:52.702Z,101402.19
2022-10-10T02:51:19.634Z,101397.97
2022-10-10T02:53:46.282Z,101396.09
2022-10-10T02:56:12.811Z,101392.66
2022-10-10T02:58:39.392Z,101397.22
2022-10-10T03:01:06.183Z,101392.66
2022-10-10T03:03:32.764Z,101389.44
2022-10-10T03:05:59.327Z,101378.69
2022-10-10T03:08:28.209Z,101394.03
2022-10-10T03:11:00.491Z,101385.09
2022-10-10T03:13:29.509Z,101384.13
2022-10-10T03:15:56.171Z,101373.50
2022-10-10T03:18:23.057Z,101385.09
2022-10-10T03:20:56.024Z,101379.91
2022-10-10T03:23:24.696Z,101369.56
2022-10-10T03:25:51.508Z,101357.66
2022-10-10T03:28:20.752Z,101357.78
2022-10-10T03:30:48.407Z,101372.53
2022-10-10T03:33:15.046Z,101375.84
2022-10-10T03:35:44.266Z,101381.16
2022-10-10T03:38:13.853Z,101379.41
2022-10-10T03:40:42.520Z,101350.41
2022-10-10T03:43:13.991Z,101384.13
2022-10-10T03:45:45.966Z,101380.91
2022-10-10T03:48:15.204Z,101397.00
2022-10-10T03:50:41.847Z,101387.22
2022-10-10T03:53:09.150Z,101380.91
2022-10-10T03:55:35.788Z,101375.00
2022-10-10T03:58:04.811Z,101383.88
2022-10-10T04:00:31.485Z,101387.59
2022-10-10T04:02:59.162Z,101385.09
2022-10-10T04:05:25.800Z,101387.09
2022-10-10T04:07:52.474Z,101380.06
2022-10-10T04:10:19.037Z,101382.03
2022-10-10T04:12:45.601Z,101382.34
2022-10-10T04:15:12.096Z,101376.91
2022-10-10T04:17:41.061Z,101370.25
2022-10-10T04:20:07.988Z,101377.19
2022-10-10T04:22:34.536Z,101379.25
2022-10-10T04:25:01.127Z,101385.06
2022-10-10T04:27:27.697Z,101374.69
2022-10-10T04:29:54.298Z,101381.72
2022-10-10T04:32:20.822Z,101387.41
2022-10-10T04:34:47.365Z,101375.19
2022-10-10T04:37:13.910Z,101377.16
2022-10-10T04:39:40.552Z,101381.59
2022-10-10T04:42:07.137Z,101375.91
2022-10-10T04:44:33.926Z,101377.75
2022-10-10T04:47:03.283Z,101373.41
2022-10-10T04:49:29.817Z,101377.50
2022-10-10T04:51:56.879Z,101376.50
2022-10-10T04:54:23.426Z,101381.31
2022-10-10T04:56:50.030Z,101376.84
2022-10-10T04:59:16.551Z,101374.53
2022-10-10T05:01:43.259Z,101362.25
2022-10-10T05:04:09.928Z,101371.03
2022-10-10T05:06:36.447Z,101374.00
2022-10-10T05:09:03.072Z,101303.91
2022-10-10T05:11:29.662Z,101362.13
2022-10-10T05:13:56.229Z,101367.19
2022-10-10T05:16:25.045Z,101352.50
2022-10-10T05:18:51.630Z,101368.28
2022-10-10T05:21:19.010Z,101362.84
2022-10-10T05:23:45.634Z,101355.94
2022-10-10T05:26:12.342Z,101361.50
2022-10-10T05:28:41.217Z,101361.63
2022-10-10T05:31:08.006Z,101364.44
2022-10-10T05:33:37.006Z,101363.59
2022-10-10T05:36:10.309Z,101344.53
2022-10-10T05:38:38.076Z,101319.31
2022-10-10T05:41:05.020Z,101361.97
2022-10-10T05:43:31.711Z,101368.03
2022-10-10T05:46:00.663Z,101366.94
2022-10-10T05:48:27.948Z,101351.69
2022-10-10T05:50:56.461Z,101367.56
2022-10-10T05:53:24.350Z,101337.13
2022-10-10T05:55:53.157Z,101306.97
2022-10-10T05:58:19.994Z,101372.75
2022-10-10T06:00:52.405Z,101372.41
2022-10-10T06:03:19.106Z,101376.84
2022-10-10T06:05:49.057Z,101377.59
2022-10-10T06:08:15.687Z,101375.50
2022-10-10T06:10:45.143Z,101368.19
2022-10-10T06:13:20.316Z,101372.31
2022-10-10T06:15:52.148Z,101365.13
2022-10-10T06:18:19.392Z,101369.13
2022-10-10T06:20:46.503Z,101344.88
2022-10-10T06:23:16.418Z,101380.47
2022-10-10T06:25:45.182Z,101389.75
2022-10-10T06:28:12.374Z,101324.13
2022-10-10T06:30:44.981Z,101381.97
2022-10-10T06:33:12.507Z,101394.72
2022-10-10T06:35:43.351Z,101386.19
2022-10-10T06:38:10.509Z,101385.84
2022-10-10T06:40:37.412Z,101388.59
2022-10-10T06:43:04.762Z,101386.59
2022-10-10T06:45:31.373Z,101389.06
2022-10-10T06:48:00.253Z,101390.41
2022-10-10T06:50:27.054Z,101388.06
2022-10-10T06:52:53.917Z,101396.97
2022-10-10T06:55:22.983Z,101400.91
2022-10-10T06:57:51.825Z,101391.03
2022-10-10T07:00:18.622Z,101389.38
2022-10-10T07:02:45.157Z,101389.38
2022-10-10T07:05:13.613Z,101395.28
2022-10-10T07:07:43.090Z,101395.38
2022-10-10T07:10:12.164Z,101386.94
2022-10-10T07:12:44.278Z,101395.06
2022-10-10T07:15:11.899Z,101391.97
2022-10-10T07:17:40.659Z,101399.97
2022-10-10T07:20:09.791Z,101385.81
2022-10-10T07:22:36.374Z,101396.53
2022-10-10T07:25:03.020Z,101399.03
2022-10-10T07:27:29.616Z,101394.41
2022-10-10T07:29:56.272Z,101389.00
2022-10-10T07:32:23.008Z,101401.19
2022-10-10T07:34:50.964Z,101403.28
2022-10-10T07:37:18.041Z,101401.03
2022-10-10T07:39:44.786Z,101413.78
2022-10-10T07:42:11.676Z,101411.50
2022-10-10T07:44:38.279Z,101422.75
2022-10-10T07:47:07.018Z,101425.38
2022-10-10T07:49:33.574Z,101419.94
2022-10-10T07:52:03.317Z,101432.31
2022-10-10T07:54:30.616Z,101425.44
2022-10-10T07:56:58.159Z,101434.06
2022-10-10T07:59:25.330Z,101427.72
2022-10-10T08:01:52.401Z,101439.22
2022-10-10T08:04:21.523Z,101424.38
2022-10-10T08:06:48.739Z,101430.22
2022-10-10T08:09:15.536Z,101414.16
2022-10-10T08:11:42.176Z,101443.31
2022-10-10T08:14:09.027Z,101441.75
2022-10-10T08:16:35.902Z,101441.44
2022-10-10T08:19:02.593Z,101426.47
2022-10-10T08:21:29.244Z,101440.56
2022-10-10T08:23:56.045Z,101440.00
2022-10-10T08:26:22.629Z,101433.66
2022-10-10T08:28:49.464Z,101428.56
2022-10-10T08:31:19.170Z,101432.72
2022-10-10T08:33:47.052Z,101428.63
2022-10-10T08:36:19.906Z,101430.72
2022-10-10T08:38:47.727Z,101431.47
2022-10-10T08:41:52.149Z,101427.63
2022-10-10T08:44:48.584Z,101416.53
2022-10-10T08:47:31.001Z,101433.59
2022-10-10T08:50:04.063Z,101415.81
2022-10-10T08:52:33.782Z,101429.81
2022-10-10T08:55:11.397Z,101427.41
2022-10-10T08:57:55.405Z,101433.28
2022-10-10T09:00:26.683Z,101426.81
2022-10-10T09:03:01.947Z,101441.59
2022-10-10T09:05:40.896Z,101442.97
2022-10-10T09:08:26.375Z,101446.59
2022-10-10T09:11:15.920Z,101413.66
2022-10-10T09:13:58.988Z,101444.69
2022-10-10T09:16:41.671Z,101440.91
2022-10-10T09:19:33.021Z,101442.25
2022-10-10T09:22:05.122Z,101427.25
2022-10-10T09:24:42.698Z,101448.78
2022-10-10T09:27:16.955Z,101448.19
2022-10-10T09:29:49.529Z,101453.88
2022-10-10T09:32:23.062Z,101457.53
2022-10-10T09:35:00.360Z,101452.53
2022-10-10T09:37:46.881Z,101460.63
2022-10-10T09:40:36.051Z,101468.91
2022-10-10T09:43:13.938Z,101476.31
2022-10-10T09:45:48.234Z,101476.66
2022-10-10T09:48:16.352Z,101482.13
2022-10-10T09:50:43.885Z,101485.53
2022-10-10T09:53:19.576Z,101477.63
2022-10-10T09:55:47.234Z,101475.88
2022-10-10T09:58:21.278Z,101474.69
2022-10-10T10:00:48.100Z,101482.16
2022-10-10T10:03:17.035Z,101475.78
2022-10-10T10:06:14.914Z,101477.00
2022-10-10T10:08:46.776Z,101478.94
2022-10-10T10:11:32.772Z,101485.47
2022-10-10T10:14:02.511Z,101487.53
2022-10-10T10:16:39.091Z,101490.50
2022-10-10T10:19:28.658Z,101490.31
2022-10-10T10:21:55.788Z,101481.88
2022-10-10T10:24:29.528Z,101488.00
2022-10-10T10:26:56.205Z,101477.09
2022-10-10T10:29:31.808Z,101482.22
2022-10-10T10:32:07.553Z,101479.91
2022-10-10T10:35:11.616Z,101495.16
2022-10-10T10:37:52.428Z,101485.09
2022-10-10T10:40:31.674Z,101494.47
2022-10-10T10:43:14.886Z,101497.41
2022-10-10T10:45:51.677Z,101510.19
2022-10-10T10:48:49.911Z,101516.69
2022-10-10T10:51:24.811Z,101514.28
2022-10-10T10:54:06.579Z,101505.78
2022-10-10T10:56:41.457Z,101510.38
2022-10-10T11:02:51.137Z,101523.53
2022-10-10T11:05:35.283Z,101519.16
2022-10-10T11:08:35.883Z,101518.56
2022-10-10T11:11:08.312Z,101536.78
2022-10-10T11:14:13.312Z,101526.00
2022-10-10T11:16:50.645Z,101537.16
2022-10-10T11:19:32.927Z,101542.94
2022-10-10T11:22:12.263Z,101538.28
2022-10-10T11:24:59.574Z,101536.88
2022-10-10T11:27:59.134Z,101534.06
2022-10-10T11:30:29.512Z,101525.44
2022-10-10T11:33:02.361Z,101524.94
2022-10-10T11:35:38.192Z,101527.31
2022-10-10T11:38:23.398Z,101513.97
2022-10-10T11:41:02.562Z,101514.22
2022-10-10T11:43:51.231Z,101500.31
2022-10-10T11:46:29.465Z,101498.94
2022-10-10T11:49:08.437Z,101506.66
2022-10-10T11:52:15.007Z,101515.16
2022-10-10T11:54:59.118Z,101530.06
2022-10-10T11:58:18.663Z,101528.31
2022-10-10T12:00:52.159Z,101526.31
2022-10-10T12:03:19.360Z,101518.31
2022-10-10T12:06:20.552Z,101525.13
2022-10-10T12:08:57.441Z,101537.38
2022-10-10T12:11:50.258Z,101547.22
2022-10-10T12:14:20.510Z,101539.88
2022-10-10T12:16:48.022Z,101508.78
2022-10-10T12:19:19.712Z,101544.91
2022-10-10T12:21:55.472Z,101551.97
2022-10-10T12:24:25.700Z,101554.34
2022-10-10T12:26:55.672Z,101561.06
2022-10-10T12:29:56.396Z,101554.28
2022-10-10T12:32:25.354Z,101555.16
2022-10-10T12:34:51.825Z,101556.53
2022-10-10T12:37:27.248Z,101564.72
2022-10-10T12:40:05.922Z,101559.88
2022-10-10T12:42:47.733Z,101562.06
2022-10-10T12:45:29.603Z,101552.53
2022-10-10T12:48:06.754Z,101568.25
2022-10-10T12:50:42.966Z,101567.97
2022-10-10T12:53:12.609Z,101579.78
2022-10-10T12:55:45.956Z,101581.34
2022-10-10T12:58:29.972Z,101592.31
2022-10-10T13:00:59.931Z,101588.78
2022-10-10T13:03:41.951Z,101592.31
2022-10-10T13:06:15.336Z,101599.94
2022-10-10T13:08:42.241Z,101597.16
2022-10-10T13:11:14.985Z,101594.75
2022-10-10T13:13:52.397Z,101599.31
2022-10-10T13:16:24.512Z,101604.06
2022-10-10T13:18:53.901Z,101609.09
2022-10-10T13:21:32.837Z,101614.31
2022-10-10T13:24:03.873Z,101609.69
2022-10-10T13:26:46.018Z,101612.25
2022-10-10T13:29:21.747Z,101638.19
2022-10-10T13:31:52.945Z,101645.16
2022-10-10T13:34:27.257Z,101641.97
2022-10-10T13:36:57.363Z,101649.94
2022-10-10T13:39:24.923Z,101665.50
2022-10-10T13:41:52.382Z,101659.84
2022-10-10T13:44:25.232Z,101662.44
2022-10-10T13:46:52.327Z,101647.66
2022-10-10T13:49:23.634Z,101660.94
2022-10-10T13:52:00.923Z,101665.25
2022-10-10T13:54:50.834Z,101672.84
2022-10-10T13:57:17.387Z,101679.72
2022-10-10T13:59:45.891Z,101680.41
2022-10-10T14:02:19.137Z,101681.94
2022-10-10T14:04:52.688Z,101683.69
2022-10-10T14:07:22.170Z,101686.59
2022-10-10T14:09:56.491Z,101688.16
2022-10-10T14:12:28.987Z,101683.16
2022-10-10T14:14:58.517Z,101692.84
2022-10-10T14:17:26.181Z,101697.16
2022-10-10T14:19:53.172Z,101710.47
2022-10-10T14:22:23.139Z,101716.00
2022-10-10T14:24:50.431Z,101720.88
2022-10-10T14:27:19.972Z,101730.16
2022-10-10T14:29:47.028Z,101750.16
2022-10-10T14:32:17.385Z,101743.63
2022-10-10T14:34:46.485Z,101743.81
2022-10-10T14:37:27.785Z,101757.75
2022-10-10T14:39:57.937Z,101753.59
2022-10-10T14:42:26.399Z,101772.88
2022-10-10T14:44:55.433Z,101797.50
2022-10-10T14:47:24.507Z,101802.75
2022-10-10T14:49:56.723Z,101798.22
2022-10-10T14:52:23.294Z,101823.59
2022-10-10T14:54:52.288Z,101811.41
2022-10-10T14:57:19.589Z,101816.66
2022-10-10T14:59:49.774Z,101840.66
2022-10-10T15:02:18.692Z,101843.94
2022-10-10T15:04:45.471Z,101838.31
2022-10-10T15:07:14.311Z,101858.66
2022-10-10T15:09:56.521Z,101853.00
2022-10-10T15:12:28.942Z,101853.63
2022-10-10T15:14:55.603Z,101857.88
2022-10-10T15:17:22.717Z,101857.44
2022-10-10T15:19:49.234Z,101863.81
2022-10-10T15:22:19.479Z,101846.34
2022-10-10T15:24:46.082Z,101861.53
2022-10-10T15:27:12.770Z,101865.59
2022-10-10T15:29:41.949Z,101839.84
2022-10-10T15:32:10.839Z,101880.91
2022-10-10T15:34:37.556Z,101883.38
2022-10-10T15:37:08.167Z,101869.22
2022-10-10T15:39:35.954Z,101891.16
2022-10-10T15:42:12.235Z,101893.16
2022-10-10T15:44:49.442Z,101889.41
2022-10-10T15:47:20.106Z,101896.66
2022-10-10T15:49:47.076Z,101886.81
2022-10-10T15:52:14.130Z,101903.78
2022-10-10T15:54:40.972Z,101917.06
2022-10-10T15:57:07.838Z,101915.03
2022-10-10T15:59:36.782Z,101915.50
2022-10-10T16:02:06.169Z,101908.72
2022-10-10T16:04:32.764Z,101918.41
2022-10-10T16:09:50.786Z,101919.03
2022-10-10T16:12:19.708Z,101923.03
2022-10-10T16:14:46.318Z,101935.91
2022-10-10T16:17:13.079Z,101946.59
2022-10-10T16:19:39.728Z,101948.19
2022-10-10T16:22:06.397Z,101936.28
2022-10-10T16:24:33.359Z,101948.91
2022-10-10T16:27:01.935Z,101962.63
2022-10-10T16:29:28.644Z,101962.09
2022-10-10T16:31:57.561Z,101954.91
2022-10-10T16:34:24.161Z,101970.84
2022-10-10T16:36:50.904Z,101980.53
2022-10-10T16:39:19.724Z,101983.34
2022-10-10T16:41:49.573Z,101985.97
2022-10-10T16:44:17.680Z,101991.50
2022-10-10T16:46:44.843Z,101990.69
2022-10-10T16:49:16.797Z,101982.03
2022-10-10T16:51:43.664Z,101990.25
2022-10-10T16:54:10.267Z,102011.63
2022-10-10T16:56:36.984Z,102010.66
2022-10-10T16:59:05.354Z,102017.00
2022-10-10T17:01:32.022Z,102025.09
2022-10-10T17:04:00.297Z,102025.81
2022-10-10T17:06:32.630Z,102030.16
2022-10-10T17:09:07.179Z,102018.88
2022-10-10T17:11:36.539Z,102030.84
2022-10-10T17:14:03.914Z,102040.94
2022-10-10T17:19:23.911Z,102052.19
2022-10-10T17:21:50.577Z,102059.69
2022-10-10T17:24:18.912Z,102058.63
2022-10-10T17:26:45.563Z,102074.63
2022-10-10T17:29:14.743Z,102071.53
2022-10-10T17:31:41.443Z,102073.22
2022-10-10T17:34:10.440Z,102088.09
2022-10-10T17:36:37.092Z,102080.69
2022-10-10T17:39:04.323Z,102082.50
2022-10-10T17:41:33.439Z,102099.34
2022-10-10T17:44:05.939Z,102105.19
2022-10-10T17:46:36.689Z,102100.22
2022-10-10T17:49:06.006Z,102113.56
2022-10-10T17:51:32.905Z,102128.19
2022-10-10T17:54:00.665Z,102128.00
2022-10-10T17:56:29.906Z,102128.69
2022-10-10T17:58:56.657Z,102140.28
2022-10-10T18:01:23.497Z,102133.13
2022-10-10T18:03:50.373Z,102135.28
2022-10-10T18:06:20.693Z,102139.28
2022-10-10T18:08:48.638Z,102134.72
2022-10-10T18:11:21.559Z,102142.22
2022-10-10T18:13:48.561Z,102140.50
2022-10-10T18:16:17.558Z,102119.03
2022-10-10T18:18:50.651Z,102161.78
2022-10-10T18:21:24.033Z,102148.41
2022-10-10T18:23:53.517Z,102163.66
2022-10-10T18:26:25.875Z,102171.38
2022-10-10T18:28:55.559Z,102171.91
2022-10-10T18:31:26.228Z,102177.00
2022-10-10T18:33:53.915Z,102185.47
2022-10-10T18:36:24.015Z,102165.09
2022-10-10T18:38:53.667Z,102183.47
2022-10-10T18:41:22.657Z,102151.66
2022-10-10T18:43:54.203Z,102192.06
2022-10-10T18:46:22.569Z,102193.28
2022-10-10T18:48:54.228Z,102189.44
2022-10-10T18:51:26.462Z,102193.28
2022-10-10T18:54:02.256Z,102207.06
2022-10-10T18:56:30.387Z,102200.13
2022-10-10T18:59:01.221Z,102211.31
2022-10-10T19:01:29.948Z,102208.22
2022-10-10T19:03:56.899Z,102215.28
2022-10-10T19:06:24.811Z,102211.31
2022-10-10T19:08:56.317Z,102219.63
2022-10-10T19:11:25.622Z,102220.22
2022-10-10T19:13:52.599Z,102225.31
2022-10-10T19:16:19.996Z,102227.19
2022-10-10T19:18:47.469Z,102229.75
2022-10-10T19:21:15.294Z,102237.53
2022-10-10T19:23:43.199Z,102240.88
2022-10-10T19:26:12.962Z,102243.22
2022-10-10T19:28:43.139Z,102252.25
2022-10-10T19:31:14.593Z,102252.72
2022-10-10T19:33:42.163Z,102248.97
2022-10-10T19:36:12.714Z,102260.13
2022-10-10T19:38:42.180Z,102254.38
2022-10-10T19:41:15.978Z,102270.16
2022-10-10T19:43:48.974Z,102263.63
2022-10-10T19:46:17.888Z,102259.53
2022-10-10T19:48:44.483Z,102279.59
2022-10-10T19:51:13.822Z,102276.25
2022-10-10T19:53:41.760Z,102275.72
2022-10-10T19:56:16.178Z,102282.38
2022-10-10T19:58:43.563Z,102286.69
2022-10-10T20:01:13.500Z,102285.94
2022-10-10T20:03:44.007Z,102294.34
2022-10-10T20:06:11.186Z,102298.50
2022-10-10T20:08:38.264Z,102307.91
2022-10-10T20:11:07.701Z,102309.19
2022-10-10T20:13:34.876Z,102308.78
2022-10-10T20:16:06.371Z,102307.03
2022-10-10T20:18:35.119Z,102303.34
2022-10-10T20:21:09.428Z,102308.38
2022-10-10T20:23:37.697Z,102318.19
2022-10-10T20:26:09.265Z,102317.84
2022-10-10T20:28:38.281Z,102334.78
2022-10-10T20:31:07.096Z,102316.25
2022-10-10T20:33:33.655Z,102347.19
2022-10-10T20:36:03.497Z,102344.56
2022-10-10T20:38:30.367Z,102349.38
2022-10-10T20:41:05.053Z,102355.03
2022-10-10T20:43:31.582Z,102341.94
2022-10-10T20:46:12.368Z,102337.59
2022-10-10T20:48:41.992Z,102363.31
2022-10-10T20:51:16.486Z,102372.50
2022-10-10T20:53:43.335Z,102370.94
2022-10-10T20:56:12.238Z,102365.91
2022-10-10T20:58:40.394Z,102376.59
2022-10-10T21:01:10.078Z,102375.84
2022-10-10T21:03:37.979Z,102375.97
2022-10-10T21:06:09.574Z,102377.03
2022-10-10T21:08:36.495Z,102374.97
2022-10-10T21:11:07.676Z,102398.28
2022-10-10T21:13:36.040Z,102394.78
2022-10-10T21:16:07.114Z,102397.72
2022-10-10T21:18:34.159Z,102396.22
2022-10-10T21:21:02.178Z,102364.31
2022-10-10T21:23:30.188Z,102399.34
2022-10-10T21:26:01.575Z,102387.50
2022-10-10T21:28:28.454Z,102413.28
2022-10-10T21:30:55.126Z,102401.13
2022-10-10T21:33:22.075Z,102404.66
2022-10-10T21:35:53.730Z,102410.84
2022-10-10T21:38:20.830Z,102415.53
2022-10-10T21:40:48.105Z,102395.88
2022-10-10T21:43:15.863Z,102424.97
2022-10-10T21:45:45.554Z,102432.38
2022-10-10T21:48:12.899Z,102430.72
2022-10-10T21:50:39.928Z,102432.88
2022-10-10T21:53:11.788Z,102438.31
2022-10-10T21:55:39.855Z,102434.75
2022-10-10T21:58:06.421Z,102428.75
2022-10-10T22:00:33.147Z,102423.59
2022-10-10T22:03:01.818Z,102429.78
2022-10-10T22:05:28.359Z,102442.53
2022-10-10T22:07:57.412Z,102440.78
2022-10-10T22:10:23.983Z,102448.28
2022-10-10T22:12:50.550Z,102431.69
2022-10-10T22:15:17.291Z,102454.91
2022-10-10T22:17:43.930Z,102439.94
2022-10-10T22:20:11.721Z,102448.78
2022-10-10T22:22:40.361Z,102454.22
2022-10-10T22:25:09.887Z,102451.69
2022-10-10T22:27:36.913Z,102451.91
2022-10-10T22:30:06.017Z,102443.47
2022-10-10T22:32:32.904Z,102448.31
2022-10-10T22:34:59.640Z,102455.53
2022-10-10T22:37:26.696Z,102465.66
2022-10-10T22:39:53.457Z,102459.78
2022-10-10T22:42:19.945Z,102455.63
2022-10-10T22:44:46.524Z,102469.72
2022-10-10T22:47:15.601Z,102437.41
2022-10-10T22:49:42.135Z,102466.31
2022-10-10T22:52:10.052Z,102467.38
2022-10-10T22:54:36.731Z,102467.75
2022-10-10T22:57:03.406Z,102471.47
2022-10-10T22:59:30.011Z,102469.72
2022-10-10T23:01:59.232Z,102479.91
2022-10-10T23:04:25.899Z,102479.91
2022-10-10T23:06:52.486Z,102473.75
2022-10-10T23:09:19.084Z,102463.25
2022-10-10T23:11:45.665Z,102477.63
2022-10-10T23:14:12.441Z,102468.91
2022-10-10T23:16:40.867Z,102467.34
2022-10-10T23:19:07.757Z,102468.31
2022-10-10T23:21:34.322Z,102476.47
2022-10-10T23:24:00.893Z,102476.66
2022-10-10T23:26:29.878Z,102485.94
2022-10-10T23:28:58.966Z,102478.97
2022-10-10T23:31:25.592Z,102481.28
2022-10-10T23:33:54.689Z,102483.22
2022-10-10T23:36:21.234Z,102487.59
2022-10-10T23:38:48.217Z,102477.34
2022-10-10T23:41:17.191Z,102491.56
2022-10-10T23:43:44.223Z,102479.22
2022-10-10T23:46:15.599Z,102491.75
2022-10-10T23:48:47.163Z,102487.28
2022-10-10T23:51:14.422Z,102484.91
2022-10-10T23:53:43.611Z,102482.38
2022-10-10T23:56:10.578Z,102490.44
2022-10-10T23:58:37.166Z,102503.34
